sensor_id;sensor_type;location;lat;lon;timestamp;P1;durP1;ratioP1;P2;durP2;ratioP2
61675;SDS011;47574;52.090;5.244;2022-07-09T00:00:04;10.1;;;7.9;;
61675;SDS011;47574;52.090;5.244;2022-07-09T00:01:51;12.5;;;9.71;;
61675;SDS011;47574;52.090;5.244;2022-07-09T00:03:38;14.3;;;9.31;;
61675;SDS011;47574;52.090;5.244;2022-07-09T00:05:26;13.4;;;8.4;;
61675;SDS011;47574;52.090;5.244;2022-07-09T00:07:12;10.9;;;7.8;;
61675;SDS011;47574;52.090;5.244;2022-07-09T00:10:45;12.4;;;8.5;;
61675;SDS011;47574;52.090;5.244;2022-07-09T00:12:31;11.7;;;7.7;;
61675;SDS011;47574;52.090;5.244;2022-07-09T00:14:20;12.9;;;8.31;;
61675;SDS011;47574;52.090;5.244;2022-07-09T00:16:06;8.0;;;6.6;;
61675;SDS011;47574;52.090;5.244;2022-07-09T00:17:53;15.2;;;13.1;;
61675;SDS011;47574;52.090;5.244;2022-07-09T00:21:25;17.2;;;11.9;;
61675;SDS011;47574;52.090;5.244;2022-07-09T00:23:11;13.5;;;10.4;;
61675;SDS011;47574;52.090;5.244;2022-07-09T00:24:59;8.5;;;7.3;;
61675;SDS011;47574;52.090;5.244;2022-07-09T00:26:46;9.21;;;7.1;;
61675;SDS011;47574;52.090;5.244;2022-07-09T00:28:32;9.1;;;6.7;;
61675;SDS011;47574;52.090;5.244;2022-07-09T00:30:18;12.5;;;9.81;;
61675;SDS011;47574;52.090;5.244;2022-07-09T00:33:51;9.1;;;8.2;;
61675;SDS011;47574;52.090;5.244;2022-07-09T00:35:38;9.81;;;7.8;;
61675;SDS011;47574;52.090;5.244;2022-07-09T00:37:24;8.71;;;7.4;;
61675;SDS011;47574;52.090;5.244;2022-07-09T00:39:10;9.21;;;7.6;;
61675;SDS011;47574;52.090;5.244;2022-07-09T00:40:56;8.6;;;6.3;;
61675;SDS011;47574;52.090;5.244;2022-07-09T00:42:42;7.9;;;6.0;;
61675;SDS011;47574;52.090;5.244;2022-07-09T00:46:14;8.2;;;5.9;;
61675;SDS011;47574;52.090;5.244;2022-07-09T00:48:02;9.9;;;6.0;;
61675;SDS011;47574;52.090;5.244;2022-07-09T00:49:49;10.7;;;6.5;;
61675;SDS011;47574;52.090;5.244;2022-07-09T00:51:36;7.3;;;6.0;;
61675;SDS011;47574;52.090;5.244;2022-07-09T00:53:25;10.7;;;6.0;;
61675;SDS011;47574;52.090;5.244;2022-07-09T00:56:58;6.1;;;5.3;;
61675;SDS011;47574;52.090;5.244;2022-07-09T00:58:45;6.2;;;5.2;;
61675;SDS011;47574;52.090;5.244;2022-07-09T01:00:32;8.71;;;5.6;;
61675;SDS011;47574;52.090;5.244;2022-07-09T01:02:20;8.71;;;5.4;;
61675;SDS011;47574;52.090;5.244;2022-07-09T01:04:08;7.8;;;5.4;;
61675;SDS011;47574;52.090;5.244;2022-07-09T01:05:56;7.4;;;5.8;;
61675;SDS011;47574;52.090;5.244;2022-07-09T01:09:29;9.6;;;6.5;;
61675;SDS011;47574;52.090;5.244;2022-07-09T01:11:15;13.1;;;6.4;;
61675;SDS011;47574;52.090;5.244;2022-07-09T01:13:03;8.71;;;5.8;;
61675;SDS011;47574;52.090;5.244;2022-07-09T01:14:51;9.21;;;5.9;;
61675;SDS011;47574;52.090;5.244;2022-07-09T01:16:38;8.31;;;5.4;;
61675;SDS011;47574;52.090;5.244;2022-07-09T01:18:25;9.6;;;6.0;;
61675;SDS011;47574;52.090;5.244;2022-07-09T01:21:59;7.9;;;5.5;;
61675;SDS011;47574;52.090;5.244;2022-07-09T01:23:46;6.8;;;5.2;;
61675;SDS011;47574;52.090;5.244;2022-07-09T01:25:34;8.81;;;6.0;;
61675;SDS011;47574;52.090;5.244;2022-07-09T01:27:22;8.9;;;6.1;;
61675;SDS011;47574;52.090;5.244;2022-07-09T01:29:08;9.4;;;5.8;;
61675;SDS011;47574;52.090;5.244;2022-07-09T01:30:55;6.9;;;5.5;;
61675;SDS011;47574;52.090;5.244;2022-07-09T01:34:28;8.6;;;5.5;;
61675;SDS011;47574;52.090;5.244;2022-07-09T01:36:14;7.9;;;6.1;;
61675;SDS011;47574;52.090;5.244;2022-07-09T01:38:01;8.5;;;7.7;;
61675;SDS011;47574;52.090;5.244;2022-07-09T01:39:51;10.0;;;7.6;;
61675;SDS011;47574;52.090;5.244;2022-07-09T01:41:37;9.21;;;6.9;;
61675;SDS011;47574;52.090;5.244;2022-07-09T01:43:24;13.1;;;8.2;;
61675;SDS011;47574;52.090;5.244;2022-07-09T01:46:58;11.0;;;8.6;;
61675;SDS011;47574;52.090;5.244;2022-07-09T01:48:44;12.1;;;8.9;;
61675;SDS011;47574;52.090;5.244;2022-07-09T01:50:30;12.8;;;8.81;;
61675;SDS011;47574;52.090;5.244;2022-07-09T01:52:17;12.6;;;8.6;;
61675;SDS011;47574;52.090;5.244;2022-07-09T01:54:03;12.3;;;9.1;;
61675;SDS011;47574;52.090;5.244;2022-07-09T01:57:36;10.3;;;8.9;;
61675;SDS011;47574;52.090;5.244;2022-07-09T01:59:22;10.6;;;9.5;;
61675;SDS011;47574;52.090;5.244;2022-07-09T02:01:08;11.7;;;9.6;;
61675;SDS011;47574;52.090;5.244;2022-07-09T02:02:54;12.9;;;10.1;;
61675;SDS011;47574;52.090;5.244;2022-07-09T02:04:41;12.4;;;9.9;;
61675;SDS011;47574;52.090;5.244;2022-07-09T02:06:27;13.2;;;9.9;;
61675;SDS011;47574;52.090;5.244;2022-07-09T02:10:01;12.2;;;9.71;;
61675;SDS011;47574;52.090;5.244;2022-07-09T02:11:49;13.8;;;10.21;;
61675;SDS011;47574;52.090;5.244;2022-07-09T02:13:37;13.2;;;10.5;;
61675;SDS011;47574;52.090;5.244;2022-07-09T02:15:23;13.5;;;11.0;;
61675;SDS011;47574;52.090;5.244;2022-07-09T02:17:10;13.1;;;10.5;;
61675;SDS011;47574;52.090;5.244;2022-07-09T02:18:57;12.2;;;10.4;;
61675;SDS011;47574;52.090;5.244;2022-07-09T02:22:29;14.1;;;10.6;;
61675;SDS011;47574;52.090;5.244;2022-07-09T02:24:16;11.6;;;10.1;;
61675;SDS011;47574;52.090;5.244;2022-07-09T02:26:03;11.6;;;10.4;;
61675;SDS011;47574;52.090;5.244;2022-07-09T02:27:50;12.1;;;9.4;;
61675;SDS011;47574;52.090;5.244;2022-07-09T02:29:36;12.2;;;9.6;;
61675;SDS011;47574;52.090;5.244;2022-07-09T02:33:10;12.9;;;8.9;;
61675;SDS011;47574;52.090;5.244;2022-07-09T02:34:56;12.5;;;9.6;;
61675;SDS011;47574;52.090;5.244;2022-07-09T02:36:42;11.5;;;10.4;;
61675;SDS011;47574;52.090;5.244;2022-07-09T02:38:29;10.6;;;9.5;;
61675;SDS011;47574;52.090;5.244;2022-07-09T02:40:16;13.3;;;9.6;;
61675;SDS011;47574;52.090;5.244;2022-07-09T02:42:02;12.7;;;10.9;;
61675;SDS011;47574;52.090;5.244;2022-07-09T02:45:35;13.1;;;10.8;;
61675;SDS011;47574;52.090;5.244;2022-07-09T02:47:21;15.0;;;10.9;;
61675;SDS011;47574;52.090;5.244;2022-07-09T02:49:10;12.7;;;10.4;;
61675;SDS011;47574;52.090;5.244;2022-07-09T02:50:56;12.6;;;10.3;;
61675;SDS011;47574;52.090;5.244;2022-07-09T02:52:43;13.0;;;10.8;;
61675;SDS011;47574;52.090;5.244;2022-07-09T02:54:30;11.4;;;10.1;;
61675;SDS011;47574;52.090;5.244;2022-07-09T02:58:02;12.8;;;10.3;;
61675;SDS011;47574;52.090;5.244;2022-07-09T02:59:48;14.3;;;11.1;;
61675;SDS011;47574;52.090;5.244;2022-07-09T03:01:34;14.9;;;12.5;;
61675;SDS011;47574;52.090;5.244;2022-07-09T03:03:23;14.6;;;13.1;;
61675;SDS011;47574;52.090;5.244;2022-07-09T03:05:10;17.3;;;15.0;;
61675;SDS011;47574;52.090;5.244;2022-07-09T03:08:42;17.7;;;13.9;;
61675;SDS011;47574;52.090;5.244;2022-07-09T03:10:28;18.61;;;13.0;;
61675;SDS011;47574;52.090;5.244;2022-07-09T03:12:15;16.2;;;13.8;;
61675;SDS011;47574;52.090;5.244;2022-07-09T03:14:02;16.11;;;13.7;;
61675;SDS011;47574;52.090;5.244;2022-07-09T03:15:49;18.2;;;15.0;;
61675;SDS011;47574;52.090;5.244;2022-07-09T03:17:35;16.5;;;14.7;;
61675;SDS011;47574;52.090;5.244;2022-07-09T03:21:08;15.8;;;14.1;;
61675;SDS011;47574;52.090;5.244;2022-07-09T03:22:55;17.91;;;14.7;;
61675;SDS011;47574;52.090;5.244;2022-07-09T03:24:41;18.0;;;15.2;;
61675;SDS011;47574;52.090;5.244;2022-07-09T03:26:28;13.6;;;11.4;;
61675;SDS011;47574;52.090;5.244;2022-07-09T03:28:14;9.0;;;7.4;;
61675;SDS011;47574;52.090;5.244;2022-07-09T03:31:51;8.6;;;7.2;;
61675;SDS011;47574;52.090;5.244;2022-07-09T03:33:37;7.6;;;6.6;;
61675;SDS011;47574;52.090;5.244;2022-07-09T03:35:23;8.6;;;7.7;;
61675;SDS011;47574;52.090;5.244;2022-07-09T03:37:10;8.31;;;7.4;;
61675;SDS011;47574;52.090;5.244;2022-07-09T03:38:56;9.71;;;7.2;;
61675;SDS011;47574;52.090;5.244;2022-07-09T03:40:43;10.3;;;8.31;;
61675;SDS011;47574;52.090;5.244;2022-07-09T03:44:17;9.81;;;8.4;;
61675;SDS011;47574;52.090;5.244;2022-07-09T03:46:04;8.1;;;7.3;;
61675;SDS011;47574;52.090;5.244;2022-07-09T03:47:51;9.9;;;8.9;;
61675;SDS011;47574;52.090;5.244;2022-07-09T03:49:37;10.21;;;8.5;;
61675;SDS011;47574;52.090;5.244;2022-07-09T03:51:24;9.9;;;8.31;;
61675;SDS011;47574;52.090;5.244;2022-07-09T03:53:10;11.6;;;9.5;;
61675;SDS011;47574;52.090;5.244;2022-07-09T03:56:43;11.6;;;9.1;;
61675;SDS011;47574;52.090;5.244;2022-07-09T03:58:30;12.7;;;11.1;;
61675;SDS011;47574;52.090;5.244;2022-07-09T04:00:17;12.5;;;10.9;;
61675;SDS011;47574;52.090;5.244;2022-07-09T04:02:05;12.0;;;10.1;;
61675;SDS011;47574;52.090;5.244;2022-07-09T04:03:52;12.6;;;10.8;;
61675;SDS011;47574;52.090;5.244;2022-07-09T04:05:39;12.0;;;10.0;;
61675;SDS011;47574;52.090;5.244;2022-07-09T04:09:13;12.1;;;9.9;;
61675;SDS011;47574;52.090;5.244;2022-07-09T04:10:59;13.4;;;11.1;;
61675;SDS011;47574;52.090;5.244;2022-07-09T04:12:46;12.5;;;11.2;;
61675;SDS011;47574;52.090;5.244;2022-07-09T04:14:33;13.3;;;10.5;;
61675;SDS011;47574;52.090;5.244;2022-07-09T04:16:20;14.4;;;11.7;;
61675;SDS011;47574;52.090;5.244;2022-07-09T04:19:53;15.6;;;13.1;;
61675;SDS011;47574;52.090;5.244;2022-07-09T04:21:40;15.6;;;12.6;;
61675;SDS011;47574;52.090;5.244;2022-07-09T04:23:26;15.0;;;12.1;;
61675;SDS011;47574;52.090;5.244;2022-07-09T04:25:13;12.9;;;10.0;;
61675;SDS011;47574;52.090;5.244;2022-07-09T04:26:59;11.3;;;8.4;;
61675;SDS011;47574;52.090;5.244;2022-07-09T04:28:46;10.3;;;8.6;;
61675;SDS011;47574;52.090;5.244;2022-07-09T04:32:20;11.8;;;9.4;;
61675;SDS011;47574;52.090;5.244;2022-07-09T04:34:06;11.8;;;9.21;;
61675;SDS011;47574;52.090;5.244;2022-07-09T04:35:53;10.9;;;9.6;;
61675;SDS011;47574;52.090;5.244;2022-07-09T04:37:41;12.6;;;10.5;;
61675;SDS011;47574;52.090;5.244;2022-07-09T04:39:27;12.2;;;11.0;;
61675;SDS011;47574;52.090;5.244;2022-07-09T04:41:14;12.9;;;11.4;;
61675;SDS011;47574;52.090;5.244;2022-07-09T04:44:48;13.3;;;11.3;;
61675;SDS011;47574;52.090;5.244;2022-07-09T04:46:34;15.1;;;11.5;;
61675;SDS011;47574;52.090;5.244;2022-07-09T04:48:20;12.6;;;11.3;;
61675;SDS011;47574;52.090;5.244;2022-07-09T04:50:08;13.9;;;11.1;;
61675;SDS011;47574;52.090;5.244;2022-07-09T04:51:55;13.7;;;12.3;;
61675;SDS011;47574;52.090;5.244;2022-07-09T04:55:29;15.4;;;12.8;;
61675;SDS011;47574;52.090;5.244;2022-07-09T04:57:16;16.0;;;14.3;;
61675;SDS011;47574;52.090;5.244;2022-07-09T04:59:02;21.8;;;16.7;;
61675;SDS011;47574;52.090;5.244;2022-07-09T05:00:49;21.6;;;17.61;;
61675;SDS011;47574;52.090;5.244;2022-07-09T05:02:36;22.5;;;18.3;;
61675;SDS011;47574;52.090;5.244;2022-07-09T05:04:22;22.4;;;18.5;;
61675;SDS011;47574;52.090;5.244;2022-07-09T05:07:55;23.3;;;20.2;;
61675;SDS011;47574;52.090;5.244;2022-07-09T05:09:41;21.7;;;16.7;;
61675;SDS011;47574;52.090;5.244;2022-07-09T05:11:27;19.0;;;15.7;;
61675;SDS011;47574;52.090;5.244;2022-07-09T05:13:14;15.9;;;13.8;;
61675;SDS011;47574;52.090;5.244;2022-07-09T05:15:00;17.61;;;15.0;;
61675;SDS011;47574;52.090;5.244;2022-07-09T05:16:49;21.3;;;17.8;;
61675;SDS011;47574;52.090;5.244;2022-07-09T05:20:22;19.91;;;17.8;;
61675;SDS011;47574;52.090;5.244;2022-07-09T05:22:08;21.2;;;18.91;;
61675;SDS011;47574;52.090;5.244;2022-07-09T05:23:54;24.1;;;18.8;;
61675;SDS011;47574;52.090;5.244;2022-07-09T05:25:40;25.0;;;20.0;;
61675;SDS011;47574;52.090;5.244;2022-07-09T05:27:28;21.9;;;19.0;;
61675;SDS011;47574;52.090;5.244;2022-07-09T05:31:01;23.1;;;20.2;;
61675;SDS011;47574;52.090;5.244;2022-07-09T05:32:47;23.0;;;19.61;;
61675;SDS011;47574;52.090;5.244;2022-07-09T05:34:33;26.7;;;21.7;;
61675;SDS011;47574;52.090;5.244;2022-07-09T05:36:19;25.3;;;20.6;;
61675;SDS011;47574;52.090;5.244;2022-07-09T05:38:06;25.3;;;20.7;;
61675;SDS011;47574;52.090;5.244;2022-07-09T05:39:56;24.6;;;21.9;;
61675;SDS011;47574;52.090;5.244;2022-07-09T05:43:30;24.7;;;20.7;;
61675;SDS011;47574;52.090;5.244;2022-07-09T05:45:17;25.5;;;21.1;;
61675;SDS011;47574;52.090;5.244;2022-07-09T05:47:04;24.5;;;21.5;;
61675;SDS011;47574;52.090;5.244;2022-07-09T05:48:50;24.6;;;20.7;;
61675;SDS011;47574;52.090;5.244;2022-07-09T05:50:37;26.4;;;20.6;;
61675;SDS011;47574;52.090;5.244;2022-07-09T05:52:24;25.2;;;21.4;;
61675;SDS011;47574;52.090;5.244;2022-07-09T05:55:57;23.9;;;21.2;;
61675;SDS011;47574;52.090;5.244;2022-07-09T05:57:43;26.6;;;22.8;;
61675;SDS011;47574;52.090;5.244;2022-07-09T05:59:29;26.2;;;23.1;;
61675;SDS011;47574;52.090;5.244;2022-07-09T06:01:15;27.4;;;22.6;;
61675;SDS011;47574;52.090;5.244;2022-07-09T06:03:02;25.8;;;22.7;;
61675;SDS011;47574;52.090;5.244;2022-07-09T06:06:36;24.6;;;21.9;;
61675;SDS011;47574;52.090;5.244;2022-07-09T06:08:23;25.0;;;21.2;;
61675;SDS011;47574;52.090;5.244;2022-07-09T06:10:10;26.1;;;22.0;;
61675;SDS011;47574;52.090;5.244;2022-07-09T06:11:58;27.2;;;21.9;;
61675;SDS011;47574;52.090;5.244;2022-07-09T06:13:44;26.4;;;22.3;;
61675;SDS011;47574;52.090;5.244;2022-07-09T06:15:30;25.8;;;23.1;;
61675;SDS011;47574;52.090;5.244;2022-07-09T06:19:04;23.3;;;20.8;;
61675;SDS011;47574;52.090;5.244;2022-07-09T06:20:50;28.9;;;22.2;;
61675;SDS011;47574;52.090;5.244;2022-07-09T06:22:38;26.2;;;22.9;;
61675;SDS011;47574;52.090;5.244;2022-07-09T06:24:24;28.6;;;22.9;;
61675;SDS011;47574;52.090;5.244;2022-07-09T06:26:10;23.6;;;21.1;;
61675;SDS011;47574;52.090;5.244;2022-07-09T06:27:56;24.0;;;21.6;;
61675;SDS011;47574;52.090;5.244;2022-07-09T06:31:31;24.4;;;21.8;;
61675;SDS011;47574;52.090;5.244;2022-07-09T06:33:17;26.7;;;23.4;;
61675;SDS011;47574;52.090;5.244;2022-07-09T06:35:03;27.9;;;23.1;;
61675;SDS011;47574;52.090;5.244;2022-07-09T06:36:50;27.2;;;22.0;;
61675;SDS011;47574;52.090;5.244;2022-07-09T06:39:44;26.8;;;22.3;;
61675;SDS011;47574;52.090;5.244;2022-07-09T06:41:32;25.4;;;21.3;;
61675;SDS011;47574;52.090;5.244;2022-07-09T06:43:18;25.7;;;21.2;;
61675;SDS011;47574;52.090;5.244;2022-07-09T06:45:05;25.3;;;20.9;;
61675;SDS011;47574;52.090;5.244;2022-07-09T06:46:53;25.9;;;20.5;;
61675;SDS011;47574;52.090;5.244;2022-07-09T06:50:25;22.6;;;20.11;;
61675;SDS011;47574;52.090;5.244;2022-07-09T06:52:13;22.2;;;19.61;;
61675;SDS011;47574;52.090;5.244;2022-07-09T06:53:59;22.7;;;18.2;;
61675;SDS011;47574;52.090;5.244;2022-07-09T06:55:45;21.4;;;18.2;;
61675;SDS011;47574;52.090;5.244;2022-07-09T06:57:33;22.5;;;17.61;;
61675;SDS011;47574;52.090;5.244;2022-07-09T06:59:19;23.4;;;17.61;;
61675;SDS011;47574;52.090;5.244;2022-07-09T07:02:52;18.61;;;14.8;;
61675;SDS011;47574;52.090;5.244;2022-07-09T07:04:38;20.9;;;15.2;;
61675;SDS011;47574;52.090;5.244;2022-07-09T07:06:24;15.8;;;13.6;;
61675;SDS011;47574;52.090;5.244;2022-07-09T07:08:11;15.1;;;13.0;;
61675;SDS011;47574;52.090;5.244;2022-07-09T07:09:58;14.5;;;12.6;;
61675;SDS011;47574;52.090;5.244;2022-07-09T07:13:31;16.5;;;12.4;;
61675;SDS011;47574;52.090;5.244;2022-07-09T07:15:17;14.3;;;12.7;;
61675;SDS011;47574;52.090;5.244;2022-07-09T07:17:04;14.6;;;10.5;;
61675;SDS011;47574;52.090;5.244;2022-07-09T07:18:50;12.1;;;10.8;;
61675;SDS011;47574;52.090;5.244;2022-07-09T07:20:37;12.2;;;9.9;;
61675;SDS011;47574;52.090;5.244;2022-07-09T07:22:24;10.5;;;8.81;;
61675;SDS011;47574;52.090;5.244;2022-07-09T07:25:57;13.0;;;9.31;;
61675;SDS011;47574;52.090;5.244;2022-07-09T07:27:43;11.0;;;8.9;;
61675;SDS011;47574;52.090;5.244;2022-07-09T07:29:29;11.9;;;8.71;;
61675;SDS011;47574;52.090;5.244;2022-07-09T07:31:15;11.5;;;9.0;;
61675;SDS011;47574;52.090;5.244;2022-07-09T07:33:03;11.6;;;8.9;;
61675;SDS011;47574;52.090;5.244;2022-07-09T07:36:35;10.1;;;8.6;;
61675;SDS011;47574;52.090;5.244;2022-07-09T07:38:22;12.8;;;9.21;;
61675;SDS011;47574;52.090;5.244;2022-07-09T07:40:09;13.5;;;9.9;;
61675;SDS011;47574;52.090;5.244;2022-07-09T07:41:56;13.2;;;11.2;;
61675;SDS011;47574;52.090;5.244;2022-07-09T07:43:42;13.3;;;10.7;;
61675;SDS011;47574;52.090;5.244;2022-07-09T07:45:30;13.8;;;12.4;;
61675;SDS011;47574;52.090;5.244;2022-07-09T07:49:03;13.8;;;12.3;;
61675;SDS011;47574;52.090;5.244;2022-07-09T07:50:49;12.9;;;11.6;;
61675;SDS011;47574;52.090;5.244;2022-07-09T07:52:35;15.6;;;14.0;;
61675;SDS011;47574;52.090;5.244;2022-07-09T07:54:21;15.2;;;13.1;;
61675;SDS011;47574;52.090;5.244;2022-07-09T07:56:07;16.61;;;14.8;;
61675;SDS011;47574;52.090;5.244;2022-07-09T07:57:54;16.3;;;14.2;;
61675;SDS011;47574;52.090;5.244;2022-07-09T08:01:27;16.3;;;13.3;;
61675;SDS011;47574;52.090;5.244;2022-07-09T08:03:13;15.5;;;13.4;;
61675;SDS011;47574;52.090;5.244;2022-07-09T08:04:59;16.9;;;13.1;;
61675;SDS011;47574;52.090;5.244;2022-07-09T08:06:47;13.0;;;11.7;;
61675;SDS011;47574;52.090;5.244;2022-07-09T08:08:34;12.5;;;11.2;;
61675;SDS011;47574;52.090;5.244;2022-07-09T08:12:07;11.7;;;10.4;;
61675;SDS011;47574;52.090;5.244;2022-07-09T08:13:55;11.7;;;10.5;;
61675;SDS011;47574;52.090;5.244;2022-07-09T08:15:41;11.8;;;10.5;;
61675;SDS011;47574;52.090;5.244;2022-07-09T08:17:28;14.5;;;10.7;;
61675;SDS011;47574;52.090;5.244;2022-07-09T08:19:15;13.4;;;12.0;;
61675;SDS011;47574;52.090;5.244;2022-07-09T08:21:02;12.7;;;10.8;;
61675;SDS011;47574;52.090;5.244;2022-07-09T08:24:36;11.5;;;10.4;;
61675;SDS011;47574;52.090;5.244;2022-07-09T08:26:23;13.3;;;11.9;;
61675;SDS011;47574;52.090;5.244;2022-07-09T08:28:10;15.7;;;11.5;;
61675;SDS011;47574;52.090;5.244;2022-07-09T08:29:56;14.3;;;10.9;;
61675;SDS011;47574;52.090;5.244;2022-07-09T08:31:43;11.0;;;9.71;;
61675;SDS011;47574;52.090;5.244;2022-07-09T08:33:29;11.7;;;9.9;;
61675;SDS011;47574;52.090;5.244;2022-07-09T08:37:02;9.1;;;8.1;;
61675;SDS011;47574;52.090;5.244;2022-07-09T08:38:49;4.91;;;4.41;;
61675;SDS011;47574;52.090;5.244;2022-07-09T08:40:36;4.8;;;3.4;;
61675;SDS011;47574;52.090;5.244;2022-07-09T08:42:23;2.5;;;1.8;;
61675;SDS011;47574;52.090;5.244;2022-07-09T08:44:10;3.6;;;1.7;;
61675;SDS011;47574;52.090;5.244;2022-07-09T08:47:45;3.0;;;1.7;;
61675;SDS011;47574;52.090;5.244;2022-07-09T08:49:32;1.6;;;1.5;;
61675;SDS011;47574;52.090;5.244;2022-07-09T08:51:21;2.4;;;1.7;;
61675;SDS011;47574;52.090;5.244;2022-07-09T08:53:10;1.4;;;1.2;;
61675;SDS011;47574;52.090;5.244;2022-07-09T08:54:58;2.31;;;1.5;;
61675;SDS011;47574;52.090;5.244;2022-07-09T08:56:44;2.5;;;1.4;;
61675;SDS011;47574;52.090;5.244;2022-07-09T09:00:18;4.8;;;1.8;;
61675;SDS011;47574;52.090;5.244;2022-07-09T09:02:05;3.0;;;2.1;;
61675;SDS011;47574;52.090;5.244;2022-07-09T09:03:52;3.2;;;2.21;;
61675;SDS011;47574;52.090;5.244;2022-07-09T09:05:40;3.1;;;2.21;;
61675;SDS011;47574;52.090;5.244;2022-07-09T09:07:28;4.7;;;2.8;;
61675;SDS011;47574;52.090;5.244;2022-07-09T09:09:17;2.8;;;2.5;;
61675;SDS011;47574;52.090;5.244;2022-07-09T09:11:06;2.5;;;2.31;;
61675;SDS011;47574;52.090;5.244;2022-07-09T09:14:47;4.41;;;2.1;;
61675;SDS011;47574;52.090;5.244;2022-07-09T09:16:41;3.6;;;2.1;;
61675;SDS011;47574;52.090;5.244;2022-07-09T09:18:28;3.0;;;2.21;;
61675;SDS011;47574;52.090;5.244;2022-07-09T09:20:15;2.8;;;2.6;;
61675;SDS011;47574;52.090;5.244;2022-07-09T09:22:03;4.91;;;2.5;;
61675;SDS011;47574;52.090;5.244;2022-07-09T09:23:53;3.0;;;2.7;;
61675;SDS011;47574;52.090;5.244;2022-07-09T09:27:29;3.9;;;2.5;;
61675;SDS011;47574;52.090;5.244;2022-07-09T09:29:16;3.4;;;2.4;;
61675;SDS011;47574;52.090;5.244;2022-07-09T09:31:02;2.9;;;2.0;;
61675;SDS011;47574;52.090;5.244;2022-07-09T09:33:03;3.1;;;1.9;;
61675;SDS011;47574;52.090;5.244;2022-07-09T09:34:50;4.2;;;1.8;;
61675;SDS011;47574;52.090;5.244;2022-07-09T09:36:39;3.2;;;1.7;;
61675;SDS011;47574;52.090;5.244;2022-07-09T09:38:29;2.7;;;1.5;;
61675;SDS011;47574;52.090;5.244;2022-07-09T09:42:03;1.8;;;1.2;;
61675;SDS011;47574;52.090;5.244;2022-07-09T09:43:50;2.21;;;1.2;;
61675;SDS011;47574;52.090;5.244;2022-07-09T09:45:42;2.1;;;1.2;;
61675;SDS011;47574;52.090;5.244;2022-07-09T09:47:31;1.8;;;1.2;;
61675;SDS011;47574;52.090;5.244;2022-07-09T09:49:18;1.9;;;1.11;;
61675;SDS011;47574;52.090;5.244;2022-07-09T09:51:05;3.3;;;1.11;;
61675;SDS011;47574;52.090;5.244;2022-07-09T09:54:42;1.6;;;1.11;;
61675;SDS011;47574;52.090;5.244;2022-07-09T09:56:30;1.11;;;0.9;;
61675;SDS011;47574;52.090;5.244;2022-07-09T09:58:16;2.0;;;0.9;;
61675;SDS011;47574;52.090;5.244;2022-07-09T10:00:04;1.11;;;1.0;;
61675;SDS011;47574;52.090;5.244;2022-07-09T10:01:52;2.1;;;1.2;;
61675;SDS011;47574;52.090;5.244;2022-07-09T10:03:38;2.7;;;1.11;;
61675;SDS011;47574;52.090;5.244;2022-07-09T10:07:13;2.8;;;1.11;;
61675;SDS011;47574;52.090;5.244;2022-07-09T10:09:02;1.11;;;0.8;;
61675;SDS011;47574;52.090;5.244;2022-07-09T10:10:50;3.0;;;1.2;;
61675;SDS011;47574;52.090;5.244;2022-07-09T10:12:37;3.0;;;1.2;;
61675;SDS011;47574;52.090;5.244;2022-07-09T10:14:32;1.5;;;1.0;;
61675;SDS011;47574;52.090;5.244;2022-07-09T10:16:39;3.5;;;1.2;;
61675;SDS011;47574;52.090;5.244;2022-07-09T10:18:26;1.4;;;1.0;;
61675;SDS011;47574;52.090;5.244;2022-07-09T10:20:13;3.1;;;1.2;;
61675;SDS011;47574;52.090;5.244;2022-07-09T10:23:49;3.1;;;1.0;;
61675;SDS011;47574;52.090;5.244;2022-07-09T10:25:41;2.4;;;1.11;;
61675;SDS011;47574;52.090;5.244;2022-07-09T10:27:41;2.21;;;1.11;;
61675;SDS011;47574;52.090;5.244;2022-07-09T10:29:29;1.6;;;0.8;;
61675;SDS011;47574;52.090;5.244;2022-07-09T10:31:17;2.0;;;1.2;;
61675;SDS011;47574;52.090;5.244;2022-07-09T10:33:07;2.7;;;1.4;;
61675;SDS011;47574;52.090;5.244;2022-07-09T10:34:57;3.2;;;1.4;;
61675;SDS011;47574;52.090;5.244;2022-07-09T10:38:51;2.6;;;1.11;;
61675;SDS011;47574;52.090;5.244;2022-07-09T10:40:40;3.0;;;1.11;;
61675;SDS011;47574;52.090;5.244;2022-07-09T10:42:29;1.8;;;1.2;;
61675;SDS011;47574;52.090;5.244;2022-07-09T10:44:23;3.4;;;1.6;;
61675;SDS011;47574;52.090;5.244;2022-07-09T10:46:12;2.6;;;1.11;;
61675;SDS011;47574;52.090;5.244;2022-07-09T10:48:00;3.8;;;1.6;;
61675;SDS011;47574;52.090;5.244;2022-07-09T10:49:48;2.8;;;1.11;;
61675;SDS011;47574;52.090;5.244;2022-07-09T10:51:35;3.6;;;1.9;;
61675;SDS011;47574;52.090;5.244;2022-07-09T10:55:15;3.0;;;1.4;;
61675;SDS011;47574;52.090;5.244;2022-07-09T10:57:03;2.8;;;1.3;;
61675;SDS011;47574;52.090;5.244;2022-07-09T10:58:50;2.7;;;1.2;;
61675;SDS011;47574;52.090;5.244;2022-07-09T11:00:37;2.9;;;1.2;;
61675;SDS011;47574;52.090;5.244;2022-07-09T11:02:24;2.0;;;1.2;;
61675;SDS011;47574;52.090;5.244;2022-07-09T11:04:12;3.4;;;1.3;;
61675;SDS011;47574;52.090;5.244;2022-07-09T11:06:10;2.21;;;1.2;;
61675;SDS011;47574;52.090;5.244;2022-07-09T11:09:47;1.6;;;1.0;;
61675;SDS011;47574;52.090;5.244;2022-07-09T11:11:33;4.8;;;1.6;;
61675;SDS011;47574;52.090;5.244;2022-07-09T11:13:22;2.1;;;1.3;;
61675;SDS011;47574;52.090;5.244;2022-07-09T11:15:15;2.1;;;1.2;;
61675;SDS011;47574;52.090;5.244;2022-07-09T11:17:03;3.2;;;1.3;;
61675;SDS011;47574;52.090;5.244;2022-07-09T11:18:50;3.8;;;1.3;;
61675;SDS011;47574;52.090;5.244;2022-07-09T11:22:25;4.1;;;1.2;;
61675;SDS011;47574;52.090;5.244;2022-07-09T11:24:12;2.7;;;0.9;;
61675;SDS011;47574;52.090;5.244;2022-07-09T11:26:00;2.7;;;1.0;;
61675;SDS011;47574;52.090;5.244;2022-07-09T11:27:46;3.8;;;1.11;;
61675;SDS011;47574;52.090;5.244;2022-07-09T11:29:32;2.5;;;0.9;;
61675;SDS011;47574;52.090;5.244;2022-07-09T11:31:20;3.7;;;1.5;;
61675;SDS011;47574;52.090;5.244;2022-07-09T11:34:52;2.21;;;1.11;;
61675;SDS011;47574;52.090;5.244;2022-07-09T11:36:39;4.91;;;1.2;;
61675;SDS011;47574;52.090;5.244;2022-07-09T11:38:27;2.8;;;1.11;;
61675;SDS011;47574;52.090;5.244;2022-07-09T11:40:15;4.61;;;1.5;;
61675;SDS011;47574;52.090;5.244;2022-07-09T11:42:02;4.8;;;1.2;;
61675;SDS011;47574;52.090;5.244;2022-07-09T11:43:50;4.41;;;1.2;;
61675;SDS011;47574;52.090;5.244;2022-07-09T11:47:38;1.4;;;1.0;;
61675;SDS011;47574;52.090;5.244;2022-07-09T11:49:31;2.8;;;1.4;;
61675;SDS011;47574;52.090;5.244;2022-07-09T11:51:34;4.1;;;1.2;;
61675;SDS011;47574;52.090;5.244;2022-07-09T11:53:21;3.1;;;1.2;;
61675;SDS011;47574;52.090;5.244;2022-07-09T11:55:09;3.1;;;1.2;;
61675;SDS011;47574;52.090;5.244;2022-07-09T11:56:56;2.1;;;1.11;;
61675;SDS011;47574;52.090;5.244;2022-07-09T11:58:48;2.7;;;1.11;;
61675;SDS011;47574;52.090;5.244;2022-07-09T12:00:39;3.1;;;1.2;;
61675;SDS011;47574;52.090;5.244;2022-07-09T12:04:17;4.91;;;1.6;;
61675;SDS011;47574;52.090;5.244;2022-07-09T12:06:05;8.2;;;2.6;;
61675;SDS011;47574;52.090;5.244;2022-07-09T12:07:51;3.1;;;1.0;;
61675;SDS011;47574;52.090;5.244;2022-07-09T12:09:39;2.31;;;1.0;;
61675;SDS011;47574;52.090;5.244;2022-07-09T12:11:26;2.31;;;1.0;;
61675;SDS011;47574;52.090;5.244;2022-07-09T12:13:13;4.7;;;1.2;;
61675;SDS011;47574;52.090;5.244;2022-07-09T12:16:47;2.21;;;1.0;;
61675;SDS011;47574;52.090;5.244;2022-07-09T12:18:33;2.7;;;1.2;;
61675;SDS011;47574;52.090;5.244;2022-07-09T12:20:20;4.0;;;1.2;;
61675;SDS011;47574;52.090;5.244;2022-07-09T12:22:07;4.1;;;1.2;;
61675;SDS011;47574;52.090;5.244;2022-07-09T12:23:53;3.9;;;1.4;;
61675;SDS011;47574;52.090;5.244;2022-07-09T12:25:39;4.7;;;1.4;;
61675;SDS011;47574;52.090;5.244;2022-07-09T12:29:13;1.9;;;1.0;;
61675;SDS011;47574;52.090;5.244;2022-07-09T12:30:59;3.9;;;1.2;;
61675;SDS011;47574;52.090;5.244;2022-07-09T12:32:46;4.0;;;1.2;;
61675;SDS011;47574;52.090;5.244;2022-07-09T12:34:33;2.7;;;0.9;;
61675;SDS011;47574;52.090;5.244;2022-07-09T12:36:20;2.7;;;1.11;;
61675;SDS011;47574;52.090;5.244;2022-07-09T12:39:54;4.8;;;1.3;;
61675;SDS011;47574;52.090;5.244;2022-07-09T12:41:40;2.1;;;0.9;;
61675;SDS011;47574;52.090;5.244;2022-07-09T12:43:28;2.4;;;1.0;;